L'Atalante — FNCM — position and weather

sailwx.info

Track history (hours):
 
Tides and Currents Weather Stations Pressure Air Temp Water Temp Dewpoint Dewpoint Depression Visibility Wind Speed Wind Dir Waves Ship Positions

Oceanographic research ship L'Atalante (France)

Detailed information on ship capabilities available from University of Delaware's Ocean Information Center and ARCUS's ALIAS (Arctic Logistics Information and Support) project.

Last reported at 2019-Jan-30 15:33 UTC. Time now 2019-Feb-16 03:40 UTC.
Position N 48°13' W 005°24'.
Warning: this ship's position is 16 days out of date.

Length 85 m; beam 16 m.

Type: Other ship. MMSI: 227222000.

Date/timePositionNaut miles runAvg speedWind from/ knotsBaromVisibWave heightAir tempDewpointWater temp
2019-Jan-30 15:33N 48°13' W 005°24'9 9.2
2019-Jan-30 14:33N 48°14' W 005°10'3 8.6
2019-Jan-30 14:12N 48°15' W 005°06'2 8.2
2019-Jan-30 14:00N 48°15' W 005°04'4 8.5
2019-Jan-30 13:30N 48°16' W 004°57'4 8.7
2019-Jan-30 13:00N 48°17' W 004°51'5 9.7
2019-Jan-30 12:30N 48°18' W 004°44'510.6
2019-Jan-30 12:00N 48°19' W 004°36'510.1
2019-Jan-30 11:30N 48°22' W 004°30'1 2.4
2019-Jan-30 11:00N 48°23' W 004°29'0 0.0
2019-Jan-30 10:30N 48°23' W 004°29'0 0.0
2019-Jan-30 10:00N 48°23' W 004°29'0 0.0
2019-Jan-30 09:30N 48°23' W 004°29'0 0.0
2019-Jan-30 09:00N 48°23' W 004°29'0 0.0
2019-Jan-30 08:30N 48°23' W 004°29'0 0.0
2019-Jan-30 08:00N 48°23' W 004°29'0 0.0
2019-Jan-30 07:30N 48°23' W 004°29'0 0.0
2019-Jan-30 07:00N 48°23' W 004°29'0 0.0
2019-Jan-30 06:30N 48°23' W 004°29'0 0.0
2019-Jan-30 06:00N 48°23' W 004°29'0 0.0
2019-Jan-30 05:30N 48°23' W 004°29'0 0.0
2019-Jan-30 05:00N 48°23' W 004°29'0 0.0
2019-Jan-30 04:30N 48°23' W 004°29'0 0.0
2019-Jan-30 04:00N 48°23' W 004°29'0 0.0
2019-Jan-30 03:30N 48°23' W 004°29'0 0.0
2019-Jan-30 03:00N 48°23' W 004°29'0 0.0
2019-Jan-30 02:30N 48°23' W 004°29'0 0.0
2019-Jan-30 02:00N 48°23' W 004°29'0 0.0
2019-Jan-30 01:30N 48°23' W 004°29'0 0.0
2019-Jan-30 01:00N 48°23' W 004°29'0 0.0
2019-Jan-30 00:30N 48°23' W 004°29'0 0.0
2019-Jan-30 00:00N 48°23' W 004°29'0 0.0
2019-Jan-29 23:30N 48°23' W 004°29'0 0.0
2019-Jan-29 23:00N 48°23' W 004°29'0 0.0
2019-Jan-29 22:30N 48°23' W 004°29'0 0.0
2019-Jan-29 22:00N 48°23' W 004°29'0 0.0
2019-Jan-29 21:30N 48°23' W 004°29'0 0.0
2019-Jan-29 21:00N 48°23' W 004°29'0 0.0
2019-Jan-29 20:30N 48°23' W 004°29'0 0.0
2019-Jan-29 20:00N 48°23' W 004°29'0 0.0
2019-Jan-29 19:30N 48°23' W 004°29'0 0.0
2019-Jan-29 19:00N 48°23' W 004°29'0 0.0
2019-Jan-29 18:30N 48°23' W 004°29'0 0.0
2019-Jan-29 18:00N 48°23' W 004°29'0 0.0
2019-Jan-29 17:30N 48°23' W 004°29'0 0.0
2019-Jan-29 17:00N 48°23' W 004°29'0 0.0
2019-Jan-29 16:30N 48°23' W 004°29'0 0.0
2019-Jan-29 16:00N 48°23' W 004°29'0 0.0
2019-Jan-29 15:30N 48°23' W 004°29'0 0.0
2019-Jan-29 15:00N 48°23' W 004°29'0 0.0
2019-Jan-29 14:30N 48°23' W 004°29'0 0.0
2019-Jan-29 14:00N 48°23' W 004°29'0 0.0
2019-Jan-29 13:30N 48°23' W 004°29'0 0.0
2019-Jan-29 13:00N 48°23' W 004°29'0 0.0
2019-Jan-29 12:30N 48°23' W 004°29'0 0.0
2019-Jan-29 12:00N 48°23' W 004°29'0 0.0
2019-Jan-29 11:30N 48°23' W 004°29'0 0.0
2019-Jan-29 11:00N 48°23' W 004°29'0 0.0
2019-Jan-29 10:30N 48°23' W 004°29'0 0.0
2019-Jan-29 10:00N 48°23' W 004°29'0 0.0
2019-Jan-29 09:30N 48°23' W 004°29'0 0.0
2019-Jan-29 09:00N 48°23' W 004°29'0 0.0
2019-Jan-29 08:30N 48°23' W 004°29'0 0.0
2019-Jan-29 08:00N 48°23' W 004°29'0 0.0
2019-Jan-29 07:30N 48°23' W 004°29'0 0.0
2019-Jan-29 07:00N 48°23' W 004°29'0 0.1
2019-Jan-29 06:30N 48°23' W 004°29'3 6.0
2019-Jan-29 06:01N 48°20' W 004°29'4 7.5
2019-Jan-29 05:30N 48°18' W 004°24'0 0.1
2019-Jan-29 05:01N 48°18' W 004°24'0 0.0
2019-Jan-29 04:30N 48°18' W 004°24'0 0.0
2019-Jan-29 04:01N 48°18' W 004°24'0 0.0
2019-Jan-29 03:31N 48°18' W 004°24'0 0.0
2019-Jan-29 03:00N 48°18' W 004°24'0 0.0
2019-Jan-29 02:30N 48°18' W 004°24'0 0.0
2019-Jan-29 02:01N 48°18' W 004°24'0 0.0
2019-Jan-29 01:31N 48°18' W 004°24'0 0.0
2019-Jan-29 01:01N 48°18' W 004°24'0 0.0
2019-Jan-29 00:31N 48°18' W 004°24'0 0.0
2019-Jan-29 00:00N 48°18' W 004°24'0 0.0
2019-Jan-28 23:31N 48°18' W 004°24'0 0.0
2019-Jan-28 23:00N 48°18' W 004°24'0 0.0
2019-Jan-28 22:31N 48°18' W 004°24'0 0.0
2019-Jan-28 22:01N 48°18' W 004°24'0 0.1
2019-Jan-28 21:30N 48°18' W 004°25'0 0.0
2019-Jan-28 21:00N 48°18' W 004°25'0 0.3
2019-Jan-28 20:31N 48°18' W 004°25'4 7.6
2019-Jan-28 20:00N 48°20' W 004°30'1 1.4
2019-Jan-28 19:31N 48°20' W 004°31'0 0.3
2019-Jan-28 19:01N 48°20' W 004°31'0 0.2
2019-Jan-28 18:31N 48°20' W 004°31'1 1.6
2019-Jan-28 18:01N 48°20' W 004°31'5 9.2
2019-Jan-28 17:30N 48°19' W 004°37'5 9.0
2019-Jan-28 17:00N 48°17' W 004°43'1 1.5
2019-Jan-28 16:31N 48°17' W 004°44'3 6.4
2019-Jan-28 16:01N 48°19' W 004°40'1 1.7
2019-Jan-28 15:30N 48°20' W 004°40'0 0.2
2019-Jan-28 15:01N 48°20' W 004°40'0 0.0
2019-Jan-28 14:31N 48°20' W 004°40'0 0.2
2019-Jan-28 14:00N 48°20' W 004°39'0 0.0
2019-Jan-28 13:31N 48°20' W 004°39'0 0.0
2019-Jan-28 13:01N 48°20' W 004°39'0 0.0
2019-Jan-28 12:31N 48°20' W 004°39'0 0.2
2019-Jan-28 12:00N 48°20' W 004°40'0 0.0
2019-Jan-28 11:31N 48°20' W 004°40'0 0.0
2019-Jan-28 11:01N 48°20' W 004°40'0 0.0
2019-Jan-28 10:30N 48°20' W 004°40'3 5.5
2019-Jan-28 10:01N 48°20' W 004°36'3 6.8
2019-Jan-28 09:30N 48°21' W 004°30'0 0.7
2019-Jan-28 09:01N 48°20' W 004°30'0 0.2
2019-Jan-28 08:31N 48°20' W 004°30'0 0.1
2019-Jan-28 08:00N 48°20' W 004°30'0 0.0
2019-Jan-28 07:30N 48°20' W 004°30'0 0.2
2019-Jan-28 07:01N 48°20' W 004°30'0 0.2
2019-Jan-28 06:31N 48°20' W 004°30'0 0.4
2019-Jan-28 06:00N 48°20' W 004°30'0 0.5
2019-Jan-28 05:31N 48°20' W 004°30'0 0.2
2019-Jan-28 05:00N 48°20' W 004°30'0 0.0
2019-Jan-28 04:31N 48°20' W 004°30'0 0.0
2019-Jan-28 04:00N 48°20' W 004°30'0 0.0
2019-Jan-28 03:30N 48°20' W 004°30'0 0.0
2019-Jan-28 03:01N 48°20' W 004°30'0 0.0
2019-Jan-28 02:31N 48°20' W 004°30'0 0.0
2019-Jan-28 02:00N 48°20' W 004°30'0 0.0
2019-Jan-28 01:31N 48°20' W 004°30'0 0.0
2019-Jan-28 01:00N 48°20' W 004°30'0 0.0
2019-Jan-28 00:31N 48°20' W 004°30'0 0.4
2019-Jan-28 00:01N 48°20' W 004°30'0 0.3
2019-Jan-27 23:30N 48°20' W 004°30'0 0.2
2019-Jan-27 23:01N 48°20' W 004°30'0 0.1
2019-Jan-27 22:31N 48°20' W 004°30'0 0.1
2019-Jan-27 22:00N 48°20' W 004°30'0 0.2
2019-Jan-27 21:31N 48°20' W 004°30'0 0.1
2019-Jan-27 21:00N 48°20' W 004°30'0 0.2
2019-Jan-27 20:30N 48°20' W 004°30'0 0.1
2019-Jan-27 20:01N 48°20' W 004°30'0 0.1
2019-Jan-27 19:31N 48°20' W 004°30'1 1.5
2019-Jan-27 19:01N 48°21' W 004°30'0 0.1
2019-Jan-27 18:31N 48°21' W 004°30'0 0.0
2019-Jan-27 18:01N 48°21' W 004°30'0 0.2
2019-Jan-27 17:31N 48°21' W 004°30'0 0.2
2019-Jan-27 17:01N 48°21' W 004°30'0 0.6
2019-Jan-27 16:30N 48°21' W 004°30'0 0.4
2019-Jan-27 16:01N 48°21' W 004°30'0 0.2
2019-Jan-27 15:30N 48°21' W 004°30'0 0.1
2019-Jan-27 15:01N 48°21' W 004°30'0 0.1
2019-Jan-27 14:31N 48°21' W 004°30'0 0.0
2019-Jan-27 14:00N 48°21' W 004°30'0 0.2
2019-Jan-27 13:30N 48°21' W 004°30'0 0.1
2019-Jan-27 13:01N 48°21' W 004°30'0 0.0
2019-Jan-27 12:31N 48°21' W 004°30'0 0.0
2019-Jan-27 12:00N 48°21' W 004°30'0 0.0
2019-Jan-27 11:31N 48°21' W 004°30'0 0.3
2019-Jan-27 11:01N 48°20' W 004°30'1 2.1
2019-Jan-27 10:30N 48°21' W 004°30'1 1.3
2019-Jan-27 10:01N 48°21' W 004°30'0 0.7
2019-Jan-27 09:31N 48°21' W 004°30'0 0.1
2019-Jan-27 09:01N 48°21' W 004°30'0 0.0
2019-Jan-27 08:31N 48°21' W 004°30'0 0.0
2019-Jan-27 08:01N 48°21' W 004°30'0 0.1
2019-Jan-27 07:31N 48°21' W 004°30'0 0.1
2019-Jan-27 07:01N 48°21' W 004°30'0 0.2
2019-Jan-27 06:31N 48°21' W 004°30'0 0.2
2019-Jan-27 06:00N 48°20' W 004°30'0 0.1
2019-Jan-27 05:31N 48°20' W 004°30'0 0.4
2019-Jan-27 05:01N 48°21' W 004°30'0 0.9
2019-Jan-27 04:30N 48°20' W 004°29'0 0.3
2019-Jan-27 04:01N 48°20' W 004°29'0 0.4
2019-Jan-27 03:30N 48°20' W 004°29'0 0.5
2019-Jan-27 03:01N 48°20' W 004°28'0 0.1
2019-Jan-27 02:30N 48°20' W 004°29'0 0.7
2019-Jan-27 02:01N 48°20' W 004°29'0 0.7
2019-Jan-27 01:31N 48°20' W 004°29'1 1.6
2019-Jan-27 01:01N 48°19' W 004°29'3 6.6
2019-Jan-27 00:30N 48°18' W 004°24'0 0.4
2019-Jan-27 00:01N 48°18' W 004°24'1 1.2
2019-Jan-26 23:31N 48°18' W 004°25'1 1.7
2019-Jan-26 23:01N 48°18' W 004°23'0 0.8
2019-Jan-26 22:31N 48°18' W 004°24'1 1.7
2019-Jan-26 22:01N 48°19' W 004°25'0 0.4
2019-Jan-26 21:31N 48°18' W 004°25'0 0.9
2019-Jan-26 21:00N 48°18' W 004°24'1 1.0
2019-Jan-26 20:31N 48°18' W 004°23'4 7.1
2019-Jan-26 20:01N 48°19' W 004°29'4 7.9
2019-Jan-26 19:31N 48°21' W 004°34'3 5.4
2019-Jan-26 19:01N 48°18' W 004°36'4 8.1
2019-Jan-26 18:31N 48°18' W 004°42'612.1
2019-Jan-26 18:00N 48°17' W 004°50'611.6
2019-Jan-26 17:31N 48°16' W 004°59'510.2
2019-Jan-26 17:00N 48°15' W 005°07'6 4.6
2019-Jan-26 15:43N 48°21' W 005°11'2 7.2
2019-Jan-26 15:23N 48°18' W 005°12'5 5.9
2019-Jan-26 14:35N 48°15' W 005°08'1 4.5
2019-Jan-26 14:27N 48°15' W 005°07'4 7.9
2019-Jan-26 14:00N 48°16' W 005°12'5 6.1
2019-Jan-26 13:13N 48°20' W 005°11'3 7.4
2019-Jan-26 12:52N 48°18' W 005°13'5 6.1
2019-Jan-26 12:02N 48°14' W 005°08'1 8.8
2019-Jan-26 11:58N 48°15' W 005°07'5 9.8
2019-Jan-26 11:31N 48°15' W 005°00'5 9.7
2019-Jan-26 11:01N 48°16' W 004°53'510.4
2019-Jan-26 10:31N 48°17' W 004°45'5 9.2
2019-Jan-26 10:00N 48°19' W 004°39'1 2.5
2019-Jan-26 09:31N 48°20' W 004°40'2 3.7
2019-Jan-26 09:01N 48°19' W 004°41'2 3.7
2019-Jan-26 08:30N 48°20' W 004°39'3 5.2
2019-Jan-26 08:01N 48°20' W 004°35'4 8.8
2019-Jan-26 07:31N 48°22' W 004°29'1 1.9
2019-Jan-26 06:58N 48°23' W 004°29'0 0.0
2019-Jan-26 06:28N 48°23' W 004°29'0 0.0
2019-Jan-26 05:58N 48°23' W 004°29'0 0.0
2019-Jan-26 05:28N 48°23' W 004°29'0 0.0
2019-Jan-26 04:58N 48°23' W 004°29'0 0.0
2019-Jan-26 04:28N 48°23' W 004°29'0 0.0
2019-Jan-26 03:58N 48°23' W 004°29'0 0.0
2019-Jan-26 03:28N 48°23' W 004°29'0 0.0
2019-Jan-26 02:58N 48°23' W 004°29'0 0.0
2019-Jan-26 02:28N 48°23' W 004°29'0 0.0
2019-Jan-26 01:58N 48°23' W 004°29'0 0.0
2019-Jan-26 01:28N 48°23' W 004°29'0 0.0
2019-Jan-26 00:58N 48°23' W 004°29'0 0.0
2019-Jan-26 00:28N 48°23' W 004°29'0 0.0
2019-Jan-25 23:58N 48°23' W 004°29'0 0.0
2019-Jan-25 23:28N 48°23' W 004°29'0 0.0
2019-Jan-25 22:58N 48°23' W 004°29'0 0.0
2019-Jan-25 22:28N 48°23' W 004°29'0 0.0
2019-Jan-25 21:58N 48°23' W 004°29'0 0.0
2019-Jan-25 21:28N 48°23' W 004°29'0 0.0
2019-Jan-25 20:58N 48°23' W 004°29'0 0.0
2019-Jan-25 20:28N 48°23' W 004°29'0 0.0
2019-Jan-25 19:58N 48°23' W 004°29'0 0.0
2019-Jan-25 19:28N 48°23' W 004°29'0 0.0
2019-Jan-25 18:58N 48°23' W 004°29'0 0.0
2019-Jan-25 18:28N 48°23' W 004°29'0 0.0
2019-Jan-25 17:58N 48°23' W 004°29'0 0.0
2019-Jan-25 17:28N 48°23' W 004°29'0 0.0
2019-Jan-25 16:58N 48°23' W 004°29'0 0.0
2019-Jan-25 16:28N 48°23' W 004°29'0 0.0
2019-Jan-25 15:58N 48°23' W 004°29'0 0.0
2019-Jan-25 15:28N 48°23' W 004°29'0 0.0
2019-Jan-25 14:58N 48°23' W 004°29'0 0.0
2019-Jan-25 14:28N 48°23' W 004°29'0 0.0
2019-Jan-25 13:58N 48°23' W 004°29'0 0.0
2019-Jan-25 13:28N 48°23' W 004°29'0 0.0
2019-Jan-25 12:58N 48°23' W 004°29'0 0.0
2019-Jan-25 12:28N 48°23' W 004°29'0 0.0
2019-Jan-25 11:58N 48°23' W 004°29'0 0.0
2019-Jan-25 11:28N 48°23' W 004°29'0 0.0
2019-Jan-25 10:58N 48°23' W 004°29'0 0.0
2019-Jan-25 10:28N 48°23' W 004°29'0 0.0
2019-Jan-25 09:58N 48°23' W 004°29'0 0.0
2019-Jan-25 09:28N 48°23' W 004°29'0 0.0
2019-Jan-25 08:58N 48°23' W 004°29'0 0.0
2019-Jan-25 08:28N 48°23' W 004°29'0 0.0
2019-Jan-25 07:58N 48°23' W 004°29'0 0.0
2019-Jan-25 07:28N 48°23' W 004°29'0 0.0
2019-Jan-25 06:58N 48°23' W 004°29'0 0.0
2019-Jan-25 06:25N 48°23' W 004°29'0 0.0
2019-Jan-25 05:58N 48°23' W 004°29'0 0.0
2019-Jan-25 05:28N 48°23' W 004°29'0 0.0
2019-Jan-25 04:58N 48°23' W 004°29'0 0.0
2019-Jan-25 04:28N 48°23' W 004°29'0 0.0
2019-Jan-25 03:58N 48°23' W 004°29'0 0.0
2019-Jan-25 03:28N 48°23' W 004°29'0 0.0
2019-Jan-25 02:58N 48°23' W 004°29'0 0.0
2019-Jan-25 02:28N 48°23' W 004°29'0 0.0
2019-Jan-25 01:58N 48°23' W 004°29'0 0.0
2019-Jan-25 01:28N 48°23' W 004°29'0 0.0
2019-Jan-25 00:58N 48°23' W 004°29'0 0.0
2019-Jan-25 00:28N 48°23' W 004°29'0 0.0
2019-Jan-24 23:58N 48°23' W 004°29'0 0.0
2019-Jan-24 23:28N 48°23' W 004°29'0 0.0
2019-Jan-24 22:58N 48°23' W 004°29'0 0.0
2019-Jan-24 22:28N 48°23' W 004°29'0 0.0
2019-Jan-24 21:58N 48°23' W 004°29'0 0.0
2019-Jan-24 21:28N 48°23' W 004°29'0 0.0
2019-Jan-24 20:58N 48°23' W 004°29'0 0.0
2019-Jan-24 20:28N 48°23' W 004°29'0 0.0
2019-Jan-24 19:58N 48°23' W 004°29'0 0.0
2019-Jan-24 19:28N 48°23' W 004°29'0 0.0
2019-Jan-24 18:58N 48°23' W 004°29'0 0.0
2019-Jan-24 18:28N 48°23' W 004°29'0 0.0
2019-Jan-24 17:58N 48°23' W 004°29'0 0.0
2019-Jan-24 17:28N 48°23' W 004°29'0 0.0
2019-Jan-24 16:58N 48°23' W 004°29'0 0.0
2019-Jan-24 16:28N 48°23' W 004°29'0 0.0
2019-Jan-24 15:58N 48°23' W 004°29'0 0.0
2019-Jan-24 15:28N 48°23' W 004°29'0 0.0
2019-Jan-24 14:58N 48°23' W 004°29'0 0.0
2019-Jan-24 14:28N 48°23' W 004°29'0 0.0
2019-Jan-24 13:58N 48°23' W 004°29'0 0.0
2019-Jan-24 13:28N 48°23' W 004°29'0 0.0
2019-Jan-24 12:58N 48°23' W 004°29'0 0.0
2019-Jan-24 12:28N 48°23' W 004°29'0 0.0
2019-Jan-24 11:58N 48°23' W 004°29'0 0.0
2019-Jan-24 11:28N 48°23' W 004°29'0 0.0
2019-Jan-24 10:58N 48°23' W 004°29'0 0.0
2019-Jan-24 10:30N 48°23' W 004°29'0 0.0
2019-Jan-24 10:00N 48°23' W 004°29'0 0.0
2019-Jan-24 09:30N 48°23' W 004°29'0 0.0
2019-Jan-24 09:00N 48°23' W 004°29'0 0.0
2019-Jan-24 08:30N 48°23' W 004°29'0 0.0
2019-Jan-24 08:01N 48°23' W 004°29'2 3.3
2019-Jan-24 07:31N 48°21' W 004°30'3 5.5
2019-Jan-24 07:01N 48°21' W 004°34'2 4.1
2019-Jan-24 06:30N 48°20' W 004°36'2 4.3
2019-Jan-24 06:01N 48°19' W 004°40'2 4.6
2019-Jan-24 05:30N 48°18' W 004°43'2 4.6
2019-Jan-24 05:00N 48°17' W 004°46'2 4.4
2019-Jan-24 04:30N 48°16' W 004°49'2 4.4
2019-Jan-24 04:00N 48°16' W 004°52'2 4.5
2019-Jan-24 03:30N 48°15' W 004°55'2 4.5
2019-Jan-24 03:01N 48°14' W 004°58'2 4.8
2019-Jan-24 02:30N 48°13' W 005°02'2 4.8
2019-Jan-24 02:00N 48°13' W 005°05'2 4.6
2019-Jan-24 01:29N 48°12' W 005°09'4 5.4
2019-Jan-24 00:43N 48°10' W 005°14'6 6.1
2019-Jan-23 23:43N 48°08' W 005°23'6 5.5
2019-Jan-23 22:43N 48°06' W 005°31'5 5.3
2019-Jan-23 21:43N 48°04' W 005°38'  
2019-Jan-20 17:43N 48°02' W 005°12'1011.5
2019-Jan-20 16:53N 48°08' W 005°02'411.1
2019-Jan-20 16:30N 48°11' W 004°57'611.2
2019-Jan-20 16:01N 48°15' W 004°51'  
Track history (hours):
 
Tides and Currents Weather Stations Pressure Air Temp Water Temp Dewpoint Dewpoint Depression Visibility Wind Speed Wind Dir Waves Ship Positions

Oceanographic research ship L'Atalante (France)

Detailed information on ship capabilities available from University of Delaware's Ocean Information Center and ARCUS's ALIAS (Arctic Logistics Information and Support) project.

Last reported at 2019-Jan-30 15:33 UTC. Time now 2019-Feb-16 03:40 UTC.
Position N 48°13' W 005°24'.
Warning: this ship's position is 16 days out of date.

Length 85 m; beam 16 m.

Type: Other ship. MMSI: 227222000.

Date/timePositionNaut miles runAvg speedWind from/ knotsBaromVisibWave heightAir tempDewpointWater temp
2019-Jan-30 15:33N 48°13' W 005°24'9 9.2
2019-Jan-30 14:33N 48°14' W 005°10'3 8.6
2019-Jan-30 14:12N 48°15' W 005°06'2 8.2
2019-Jan-30 14:00N 48°15' W 005°04'4 8.5
2019-Jan-30 13:30N 48°16' W 004°57'4 8.7
2019-Jan-30 13:00N 48°17' W 004°51'5 9.7
2019-Jan-30 12:30N 48°18' W 004°44'510.6
2019-Jan-30 12:00N 48°19' W 004°36'510.1
2019-Jan-30 11:30N 48°22' W 004°30'1 2.4
2019-Jan-30 11:00N 48°23' W 004°29'0 0.0
2019-Jan-30 10:30N 48°23' W 004°29'0 0.0
2019-Jan-30 10:00N 48°23' W 004°29'0 0.0
2019-Jan-30 09:30N 48°23' W 004°29'0 0.0
2019-Jan-30 09:00N 48°23' W 004°29'0 0.0
2019-Jan-30 08:30N 48°23' W 004°29'0 0.0
2019-Jan-30 08:00N 48°23' W 004°29'0 0.0
2019-Jan-30 07:30N 48°23' W 004°29'0 0.0
2019-Jan-30 07:00N 48°23' W 004°29'0 0.0
2019-Jan-30 06:30N 48°23' W 004°29'0 0.0
2019-Jan-30 06:00N 48°23' W 004°29'0 0.0
2019-Jan-30 05:30N 48°23' W 004°29'0 0.0
2019-Jan-30 05:00N 48°23' W 004°29'0 0.0
2019-Jan-30 04:30N 48°23' W 004°29'0 0.0
2019-Jan-30 04:00N 48°23' W 004°29'0 0.0
2019-Jan-30 03:30N 48°23' W 004°29'0 0.0
2019-Jan-30 03:00N 48°23' W 004°29'0 0.0
2019-Jan-30 02:30N 48°23' W 004°29'0 0.0
2019-Jan-30 02:00N 48°23' W 004°29'0 0.0
2019-Jan-30 01:30N 48°23' W 004°29'0 0.0
2019-Jan-30 01:00N 48°23' W 004°29'0 0.0
2019-Jan-30 00:30N 48°23' W 004°29'0 0.0
2019-Jan-30 00:00N 48°23' W 004°29'0 0.0
2019-Jan-29 23:30N 48°23' W 004°29'0 0.0
2019-Jan-29 23:00N 48°23' W 004°29'0 0.0
2019-Jan-29 22:30N 48°23' W 004°29'0 0.0
2019-Jan-29 22:00N 48°23' W 004°29'0 0.0
2019-Jan-29 21:30N 48°23' W 004°29'0 0.0
2019-Jan-29 21:00N 48°23' W 004°29'0 0.0
2019-Jan-29 20:30N 48°23' W 004°29'0 0.0
2019-Jan-29 20:00N 48°23' W 004°29'0 0.0
2019-Jan-29 19:30N 48°23' W 004°29'0 0.0
2019-Jan-29 19:00N 48°23' W 004°29'0 0.0
2019-Jan-29 18:30N 48°23' W 004°29'0 0.0
2019-Jan-29 18:00N 48°23' W 004°29'0 0.0
2019-Jan-29 17:30N 48°23' W 004°29'0 0.0
2019-Jan-29 17:00N 48°23' W 004°29'0 0.0
2019-Jan-29 16:30N 48°23' W 004°29'0 0.0
2019-Jan-29 16:00N 48°23' W 004°29'0 0.0
2019-Jan-29 15:30N 48°23' W 004°29'0 0.0
2019-Jan-29 15:00N 48°23' W 004°29'0 0.0
2019-Jan-29 14:30N 48°23' W 004°29'0 0.0
2019-Jan-29 14:00N 48°23' W 004°29'0 0.0
2019-Jan-29 13:30N 48°23' W 004°29'0 0.0
2019-Jan-29 13:00N 48°23' W 004°29'0 0.0
2019-Jan-29 12:30N 48°23' W 004°29'0 0.0
2019-Jan-29 12:00N 48°23' W 004°29'0 0.0
2019-Jan-29 11:30N 48°23' W 004°29'0 0.0
2019-Jan-29 11:00N 48°23' W 004°29'0 0.0
2019-Jan-29 10:30N 48°23' W 004°29'0 0.0
2019-Jan-29 10:00N 48°23' W 004°29'0 0.0
2019-Jan-29 09:30N 48°23' W 004°29'0 0.0
2019-Jan-29 09:00N 48°23' W 004°29'0 0.0
2019-Jan-29 08:30N 48°23' W 004°29'0 0.0
2019-Jan-29 08:00N 48°23' W 004°29'0 0.0
2019-Jan-29 07:30N 48°23' W 004°29'0 0.0
2019-Jan-29 07:00N 48°23' W 004°29'0 0.1
2019-Jan-29 06:30N 48°23' W 004°29'3 6.0
2019-Jan-29 06:01N 48°20' W 004°29'4 7.5
2019-Jan-29 05:30N 48°18' W 004°24'0 0.1
2019-Jan-29 05:01N 48°18' W 004°24'0 0.0
2019-Jan-29 04:30N 48°18' W 004°24'0 0.0
2019-Jan-29 04:01N 48°18' W 004°24'0 0.0
2019-Jan-29 03:31N 48°18' W 004°24'0 0.0
2019-Jan-29 03:00N 48°18' W 004°24'0 0.0
2019-Jan-29 02:30N 48°18' W 004°24'0 0.0
2019-Jan-29 02:01N 48°18' W 004°24'0 0.0
2019-Jan-29 01:31N 48°18' W 004°24'0 0.0
2019-Jan-29 01:01N 48°18' W 004°24'0 0.0
2019-Jan-29 00:31N 48°18' W 004°24'0 0.0
2019-Jan-29 00:00N 48°18' W 004°24'0 0.0
2019-Jan-28 23:31N 48°18' W 004°24'0 0.0
2019-Jan-28 23:00N 48°18' W 004°24'0 0.0
2019-Jan-28 22:31N 48°18' W 004°24'0 0.0
2019-Jan-28 22:01N 48°18' W 004°24'0 0.1
2019-Jan-28 21:30N 48°18' W 004°25'0 0.0
2019-Jan-28 21:00N 48°18' W 004°25'0 0.3
2019-Jan-28 20:31N 48°18' W 004°25'4 7.6
2019-Jan-28 20:00N 48°20' W 004°30'1 1.4
2019-Jan-28 19:31N 48°20' W 004°31'0 0.3
2019-Jan-28 19:01N 48°20' W 004°31'0 0.2
2019-Jan-28 18:31N 48°20' W 004°31'1 1.6
2019-Jan-28 18:01N 48°20' W 004°31'5 9.2
2019-Jan-28 17:30N 48°19' W 004°37'5 9.0
2019-Jan-28 17:00N 48°17' W 004°43'1 1.5
2019-Jan-28 16:31N 48°17' W 004°44'3 6.4
2019-Jan-28 16:01N 48°19' W 004°40'1 1.7
2019-Jan-28 15:30N 48°20' W 004°40'0 0.2
2019-Jan-28 15:01N 48°20' W 004°40'0 0.0
2019-Jan-28 14:31N 48°20' W 004°40'0 0.2
2019-Jan-28 14:00N 48°20' W 004°39'0 0.0
2019-Jan-28 13:31N 48°20' W 004°39'0 0.0
2019-Jan-28 13:01N 48°20' W 004°39'0 0.0
2019-Jan-28 12:31N 48°20' W 004°39'0 0.2
2019-Jan-28 12:00N 48°20' W 004°40'0 0.0
2019-Jan-28 11:31N 48°20' W 004°40'0 0.0
2019-Jan-28 11:01N 48°20' W 004°40'0 0.0
2019-Jan-28 10:30N 48°20' W 004°40'3 5.5
2019-Jan-28 10:01N 48°20' W 004°36'3 6.8
2019-Jan-28 09:30N 48°21' W 004°30'0 0.7
2019-Jan-28 09:01N 48°20' W 004°30'0 0.2
2019-Jan-28 08:31N 48°20' W 004°30'0 0.1
2019-Jan-28 08:00N 48°20' W 004°30'0 0.0
2019-Jan-28 07:30N 48°20' W 004°30'0 0.2
2019-Jan-28 07:01N 48°20' W 004°30'0 0.2
2019-Jan-28 06:31N 48°20' W 004°30'0 0.4
2019-Jan-28 06:00N 48°20' W 004°30'0 0.5
2019-Jan-28 05:31N 48°20' W 004°30'0 0.2
2019-Jan-28 05:00N 48°20' W 004°30'0 0.0
2019-Jan-28 04:31N 48°20' W 004°30'0 0.0
2019-Jan-28 04:00N 48°20' W 004°30'0 0.0
2019-Jan-28 03:30N 48°20' W 004°30'0 0.0
2019-Jan-28 03:01N 48°20' W 004°30'0 0.0
2019-Jan-28 02:31N 48°20' W 004°30'0 0.0
2019-Jan-28 02:00N 48°20' W 004°30'0 0.0
2019-Jan-28 01:31N 48°20' W 004°30'0 0.0
2019-Jan-28 01:00N 48°20' W 004°30'0 0.0
2019-Jan-28 00:31N 48°20' W 004°30'0 0.4
2019-Jan-28 00:01N 48°20' W 004°30'0 0.3
2019-Jan-27 23:30N 48°20' W 004°30'0 0.2
2019-Jan-27 23:01N 48°20' W 004°30'0 0.1
2019-Jan-27 22:31N 48°20' W 004°30'0 0.1
2019-Jan-27 22:00N 48°20' W 004°30'0 0.2
2019-Jan-27 21:31N 48°20' W 004°30'0 0.1
2019-Jan-27 21:00N 48°20' W 004°30'0 0.2
2019-Jan-27 20:30N 48°20' W 004°30'0 0.1
2019-Jan-27 20:01N 48°20' W 004°30'0 0.1
2019-Jan-27 19:31N 48°20' W 004°30'1 1.5
2019-Jan-27 19:01N 48°21' W 004°30'0 0.1
2019-Jan-27 18:31N 48°21' W 004°30'0 0.0
2019-Jan-27 18:01N 48°21' W 004°30'0 0.2
2019-Jan-27 17:31N 48°21' W 004°30'0 0.2
2019-Jan-27 17:01N 48°21' W 004°30'0 0.6
2019-Jan-27 16:30N 48°21' W 004°30'0 0.4
2019-Jan-27 16:01N 48°21' W 004°30'0 0.2
2019-Jan-27 15:30N 48°21' W 004°30'0 0.1
2019-Jan-27 15:01N 48°21' W 004°30'0 0.1
2019-Jan-27 14:31N 48°21' W 004°30'0 0.0
2019-Jan-27 14:00N 48°21' W 004°30'0 0.2
2019-Jan-27 13:30N 48°21' W 004°30'0 0.1
2019-Jan-27 13:01N 48°21' W 004°30'0 0.0
2019-Jan-27 12:31N 48°21' W 004°30'0 0.0
2019-Jan-27 12:00N 48°21' W 004°30'0 0.0
2019-Jan-27 11:31N 48°21' W 004°30'0 0.3
2019-Jan-27 11:01N 48°20' W 004°30'1 2.1
2019-Jan-27 10:30N 48°21' W 004°30'1 1.3
2019-Jan-27 10:01N 48°21' W 004°30'0 0.7
2019-Jan-27 09:31N 48°21' W 004°30'0 0.1
2019-Jan-27 09:01N 48°21' W 004°30'0 0.0
2019-Jan-27 08:31N 48°21' W 004°30'0 0.0
2019-Jan-27 08:01N 48°21' W 004°30'0 0.1
2019-Jan-27 07:31N 48°21' W 004°30'0 0.1
2019-Jan-27 07:01N 48°21' W 004°30'0 0.2
2019-Jan-27 06:31N 48°21' W 004°30'0 0.2
2019-Jan-27 06:00N 48°20' W 004°30'0 0.1
2019-Jan-27 05:31N 48°20' W 004°30'0 0.4
2019-Jan-27 05:01N 48°21' W 004°30'0 0.9
2019-Jan-27 04:30N 48°20' W 004°29'0 0.3
2019-Jan-27 04:01N 48°20' W 004°29'0 0.4
2019-Jan-27 03:30N 48°20' W 004°29'0 0.5
2019-Jan-27 03:01N 48°20' W 004°28'0 0.1
2019-Jan-27 02:30N 48°20' W 004°29'0 0.7
2019-Jan-27 02:01N 48°20' W 004°29'0 0.7
2019-Jan-27 01:31N 48°20' W 004°29'1 1.6
2019-Jan-27 01:01N 48°19' W 004°29'3 6.6
2019-Jan-27 00:30N 48°18' W 004°24'0 0.4
2019-Jan-27 00:01N 48°18' W 004°24'1 1.2
2019-Jan-26 23:31N 48°18' W 004°25'1 1.7
2019-Jan-26 23:01N 48°18' W 004°23'0 0.8
2019-Jan-26 22:31N 48°18' W 004°24'1 1.7
2019-Jan-26 22:01N 48°19' W 004°25'0 0.4
2019-Jan-26 21:31N 48°18' W 004°25'0 0.9
2019-Jan-26 21:00N 48°18' W 004°24'1 1.0
2019-Jan-26 20:31N 48°18' W 004°23'4 7.1
2019-Jan-26 20:01N 48°19' W 004°29'4 7.9
2019-Jan-26 19:31N 48°21' W 004°34'3 5.4
2019-Jan-26 19:01N 48°18' W 004°36'4 8.1
2019-Jan-26 18:31N 48°18' W 004°42'612.1
2019-Jan-26 18:00N 48°17' W 004°50'611.6
2019-Jan-26 17:31N 48°16' W 004°59'510.2
2019-Jan-26 17:00N 48°15' W 005°07'6 4.6
2019-Jan-26 15:43N 48°21' W 005°11'2 7.2
2019-Jan-26 15:23N 48°18' W 005°12'5 5.9
2019-Jan-26 14:35N 48°15' W 005°08'1 4.5
2019-Jan-26 14:27N 48°15' W 005°07'4 7.9
2019-Jan-26 14:00N 48°16' W 005°12'5 6.1
2019-Jan-26 13:13N 48°20' W 005°11'3 7.4
2019-Jan-26 12:52N 48°18' W 005°13'5 6.1
2019-Jan-26 12:02N 48°14' W 005°08'1 8.8
2019-Jan-26 11:58N 48°15' W 005°07'5 9.8
2019-Jan-26 11:31N 48°15' W 005°00'5 9.7
2019-Jan-26 11:01N 48°16' W 004°53'510.4
2019-Jan-26 10:31N 48°17' W 004°45'5 9.2
2019-Jan-26 10:00N 48°19' W 004°39'1 2.5
2019-Jan-26 09:31N 48°20' W 004°40'2 3.7
2019-Jan-26 09:01N 48°19' W 004°41'2 3.7
2019-Jan-26 08:30N 48°20' W 004°39'3 5.2
2019-Jan-26 08:01N 48°20' W 004°35'4 8.8
2019-Jan-26 07:31N 48°22' W 004°29'1 1.9
2019-Jan-26 06:58N 48°23' W 004°29'0 0.0
2019-Jan-26 06:28N 48°23' W 004°29'0 0.0
2019-Jan-26 05:58N 48°23' W 004°29'0 0.0
2019-Jan-26 05:28N 48°23' W 004°29'0 0.0
2019-Jan-26 04:58N 48°23' W 004°29'0 0.0
2019-Jan-26 04:28N 48°23' W 004°29'0 0.0
2019-Jan-26 03:58N 48°23' W 004°29'0 0.0
2019-Jan-26 03:28N 48°23' W 004°29'0 0.0
2019-Jan-26 02:58N 48°23' W 004°29'0 0.0
2019-Jan-26 02:28N 48°23' W 004°29'0 0.0
2019-Jan-26 01:58N 48°23' W 004°29'0 0.0
2019-Jan-26 01:28N 48°23' W 004°29'0 0.0
2019-Jan-26 00:58N 48°23' W 004°29'0 0.0
2019-Jan-26 00:28N 48°23' W 004°29'0 0.0
2019-Jan-25 23:58N 48°23' W 004°29'0 0.0
2019-Jan-25 23:28N 48°23' W 004°29'0 0.0
2019-Jan-25 22:58N 48°23' W 004°29'0 0.0
2019-Jan-25 22:28N 48°23' W 004°29'0 0.0
2019-Jan-25 21:58N 48°23' W 004°29'0 0.0
2019-Jan-25 21:28N 48°23' W 004°29'0 0.0
2019-Jan-25 20:58N 48°23' W 004°29'0 0.0
2019-Jan-25 20:28N 48°23' W 004°29'0 0.0
2019-Jan-25 19:58N 48°23' W 004°29'0 0.0
2019-Jan-25 19:28N 48°23' W 004°29'0 0.0
2019-Jan-25 18:58N 48°23' W 004°29'0 0.0
2019-Jan-25 18:28N 48°23' W 004°29'0 0.0
2019-Jan-25 17:58N 48°23' W 004°29'0 0.0
2019-Jan-25 17:28N 48°23' W 004°29'0 0.0
2019-Jan-25 16:58N 48°23' W 004°29'0 0.0
2019-Jan-25 16:28N 48°23' W 004°29'0 0.0
2019-Jan-25 15:58N 48°23' W 004°29'0 0.0
2019-Jan-25 15:28N 48°23' W 004°29'0 0.0
2019-Jan-25 14:58N 48°23' W 004°29'0 0.0
2019-Jan-25 14:28N 48°23' W 004°29'0 0.0
2019-Jan-25 13:58N 48°23' W 004°29'0 0.0
2019-Jan-25 13:28N 48°23' W 004°29'0 0.0
2019-Jan-25 12:58N 48°23' W 004°29'0 0.0
2019-Jan-25 12:28N 48°23' W 004°29'0 0.0
2019-Jan-25 11:58N 48°23' W 004°29'0 0.0
2019-Jan-25 11:28N 48°23' W 004°29'0 0.0
2019-Jan-25 10:58N 48°23' W 004°29'0 0.0
2019-Jan-25 10:28N 48°23' W 004°29'0 0.0
2019-Jan-25 09:58N 48°23' W 004°29'0 0.0
2019-Jan-25 09:28N 48°23' W 004°29'0 0.0
2019-Jan-25 08:58N 48°23' W 004°29'0 0.0
2019-Jan-25 08:28N 48°23' W 004°29'0 0.0
2019-Jan-25 07:58N 48°23' W 004°29'0 0.0
2019-Jan-25 07:28N 48°23' W 004°29'0 0.0
2019-Jan-25 06:58N 48°23' W 004°29'0 0.0
2019-Jan-25 06:25N 48°23' W 004°29'0 0.0
2019-Jan-25 05:58N 48°23' W 004°29'0 0.0
2019-Jan-25 05:28N 48°23' W 004°29'0 0.0
2019-Jan-25 04:58N 48°23' W 004°29'0 0.0
2019-Jan-25 04:28N 48°23' W 004°29'0 0.0
2019-Jan-25 03:58N 48°23' W 004°29'0 0.0
2019-Jan-25 03:28N 48°23' W 004°29'0 0.0
2019-Jan-25 02:58N 48°23' W 004°29'0 0.0
2019-Jan-25 02:28N 48°23' W 004°29'0 0.0
2019-Jan-25 01:58N 48°23' W 004°29'0 0.0
2019-Jan-25 01:28N 48°23' W 004°29'0 0.0
2019-Jan-25 00:58N 48°23' W 004°29'0 0.0
2019-Jan-25 00:28N 48°23' W 004°29'0 0.0
2019-Jan-24 23:58N 48°23' W 004°29'0 0.0
2019-Jan-24 23:28N 48°23' W 004°29'0 0.0
2019-Jan-24 22:58N 48°23' W 004°29'0 0.0
2019-Jan-24 22:28N 48°23' W 004°29'0 0.0
2019-Jan-24 21:58N 48°23' W 004°29'0 0.0
2019-Jan-24 21:28N 48°23' W 004°29'0 0.0
2019-Jan-24 20:58N 48°23' W 004°29'0 0.0
2019-Jan-24 20:28N 48°23' W 004°29'0 0.0
2019-Jan-24 19:58N 48°23' W 004°29'0 0.0
2019-Jan-24 19:28N 48°23' W 004°29'0 0.0
2019-Jan-24 18:58N 48°23' W 004°29'0 0.0
2019-Jan-24 18:28N 48°23' W 004°29'0 0.0
2019-Jan-24 17:58N 48°23' W 004°29'0 0.0
2019-Jan-24 17:28N 48°23' W 004°29'0 0.0
2019-Jan-24 16:58N 48°23' W 004°29'0 0.0
2019-Jan-24 16:28N 48°23' W 004°29'0 0.0
2019-Jan-24 15:58N 48°23' W 004°29'0 0.0
2019-Jan-24 15:28N 48°23' W 004°29'0 0.0
2019-Jan-24 14:58N 48°23' W 004°29'0 0.0
2019-Jan-24 14:28N 48°23' W 004°29'0 0.0
2019-Jan-24 13:58N 48°23' W 004°29'0 0.0
2019-Jan-24 13:28N 48°23' W 004°29'0 0.0
2019-Jan-24 12:58N 48°23' W 004°29'0 0.0
2019-Jan-24 12:28N 48°23' W 004°29'0 0.0
2019-Jan-24 11:58N 48°23' W 004°29'0 0.0
2019-Jan-24 11:28N 48°23' W 004°29'0 0.0
2019-Jan-24 10:58N 48°23' W 004°29'0 0.0
2019-Jan-24 10:30N 48°23' W 004°29'0 0.0
2019-Jan-24 10:00N 48°23' W 004°29'0 0.0
2019-Jan-24 09:30N 48°23' W 004°29'0 0.0
2019-Jan-24 09:00N 48°23' W 004°29'0 0.0
2019-Jan-24 08:30N 48°23' W 004°29'0 0.0
2019-Jan-24 08:01N 48°23' W 004°29'2 3.3
2019-Jan-24 07:31N 48°21' W 004°30'3 5.5
2019-Jan-24 07:01N 48°21' W 004°34'2 4.1
2019-Jan-24 06:30N 48°20' W 004°36'2 4.3
2019-Jan-24 06:01N 48°19' W 004°40'2 4.6
2019-Jan-24 05:30N 48°18' W 004°43'2 4.6
2019-Jan-24 05:00N 48°17' W 004°46'2 4.4
2019-Jan-24 04:30N 48°16' W 004°49'2 4.4
2019-Jan-24 04:00N 48°16' W 004°52'2 4.5
2019-Jan-24 03:30N 48°15' W 004°55'2 4.5
2019-Jan-24 03:01N 48°14' W 004°58'2 4.8
2019-Jan-24 02:30N 48°13' W 005°02'2 4.8
2019-Jan-24 02:00N 48°13' W 005°05'2 4.6
2019-Jan-24 01:29N 48°12' W 005°09'4 5.4
2019-Jan-24 00:43N 48°10' W 005°14'6 6.1
2019-Jan-23 23:43N 48°08' W 005°23'6 5.5
2019-Jan-23 22:43N 48°06' W 005°31'5 5.3
2019-Jan-23 21:43N 48°04' W 005°38'  
2019-Jan-20 17:43N 48°02' W 005°12'1011.5
2019-Jan-20 16:53N 48°08' W 005°02'411.1
2019-Jan-20 16:30N 48°11' W 004°57'611.2
2019-Jan-20 16:01N 48°15' W 004°51'  

Dump ship's entire track history